sensor_id;sensor_type;location;lat;lon;timestamp;P1;durP1;ratioP1;P2;durP2;ratioP2
71965;SDS011;59836;52.132;5.442;2023-05-23T00:01:56;12.90;;;6.00;;
71965;SDS011;59836;52.132;5.442;2023-05-23T00:04:23;12.20;;;5.75;;
71965;SDS011;59836;52.132;5.442;2023-05-23T00:06:52;11.15;;;5.82;;
71965;SDS011;59836;52.132;5.442;2023-05-23T00:09:19;11.23;;;6.20;;
71965;SDS011;59836;52.132;5.442;2023-05-23T00:11:45;13.33;;;6.03;;
71965;SDS011;59836;52.132;5.442;2023-05-23T00:14:12;9.70;;;5.50;;
71965;SDS011;59836;52.132;5.442;2023-05-23T00:16:40;10.75;;;5.90;;
71965;SDS011;59836;52.132;5.442;2023-05-23T00:19:09;10.50;;;6.18;;
71965;SDS011;59836;52.132;5.442;2023-05-23T00:21:37;13.95;;;6.25;;
71965;SDS011;59836;52.132;5.442;2023-05-23T00:24:03;10.07;;;5.80;;
71965;SDS011;59836;52.132;5.442;2023-05-23T00:26:30;12.73;;;5.72;;
71965;SDS011;59836;52.132;5.442;2023-05-23T00:28:57;11.35;;;5.78;;
71965;SDS011;59836;52.132;5.442;2023-05-23T00:31:24;12.18;;;6.25;;
71965;SDS011;59836;52.132;5.442;2023-05-23T00:33:50;12.00;;;6.40;;
71965;SDS011;59836;52.132;5.442;2023-05-23T00:36:17;10.07;;;5.70;;
71965;SDS011;59836;52.132;5.442;2023-05-23T00:38:44;10.70;;;5.65;;
71965;SDS011;59836;52.132;5.442;2023-05-23T00:41:14;11.20;;;6.07;;
71965;SDS011;59836;52.132;5.442;2023-05-23T00:43:41;12.50;;;5.82;;
71965;SDS011;59836;52.132;5.442;2023-05-23T00:46:08;9.57;;;6.25;;
71965;SDS011;59836;52.132;5.442;2023-05-23T00:48:36;11.70;;;6.27;;
71965;SDS011;59836;52.132;5.442;2023-05-23T00:51:03;10.82;;;5.85;;
71965;SDS011;59836;52.132;5.442;2023-05-23T00:53:30;10.43;;;5.75;;
71965;SDS011;59836;52.132;5.442;2023-05-23T00:56:01;10.32;;;5.45;;
71965;SDS011;59836;52.132;5.442;2023-05-23T00:58:28;9.70;;;5.32;;
71965;SDS011;59836;52.132;5.442;2023-05-23T01:00:55;7.57;;;5.00;;
71965;SDS011;59836;52.132;5.442;2023-05-23T01:03:22;8.85;;;5.10;;
71965;SDS011;59836;52.132;5.442;2023-05-23T01:05:49;7.18;;;4.85;;
71965;SDS011;59836;52.132;5.442;2023-05-23T01:08:16;11.05;;;4.85;;
71965;SDS011;59836;52.132;5.442;2023-05-23T01:10:43;6.70;;;4.30;;
71965;SDS011;59836;52.132;5.442;2023-05-23T01:13:30;7.93;;;4.43;;
71965;SDS011;59836;52.132;5.442;2023-05-23T01:16:06;8.32;;;5.22;;
71965;SDS011;59836;52.132;5.442;2023-05-23T01:18:39;8.13;;;4.45;;
71965;SDS011;59836;52.132;5.442;2023-05-23T01:21:13;7.05;;;3.83;;
71965;SDS011;59836;52.132;5.442;2023-05-23T01:29:00;6.70;;;4.38;;
71965;SDS011;59836;52.132;5.442;2023-05-23T01:31:39;8.05;;;4.40;;
71965;SDS011;59836;52.132;5.442;2023-05-23T01:34:09;7.32;;;4.38;;
71965;SDS011;59836;52.132;5.442;2023-05-23T01:36:41;9.15;;;4.93;;
71965;SDS011;59836;52.132;5.442;2023-05-23T01:39:09;7.43;;;5.03;;
71965;SDS011;59836;52.132;5.442;2023-05-23T01:41:36;6.35;;;4.20;;
71965;SDS011;59836;52.132;5.442;2023-05-23T01:44:02;6.47;;;4.18;;
71965;SDS011;59836;52.132;5.442;2023-05-23T01:46:30;8.93;;;4.55;;
71965;SDS011;59836;52.132;5.442;2023-05-23T01:48:59;7.20;;;4.93;;
71965;SDS011;59836;52.132;5.442;2023-05-23T01:51:29;8.77;;;4.37;;
71965;SDS011;59836;52.132;5.442;2023-05-23T01:53:56;6.53;;;3.83;;
71965;SDS011;59836;52.132;5.442;2023-05-23T01:56:23;6.80;;;4.78;;
71965;SDS011;59836;52.132;5.442;2023-05-23T01:58:50;7.97;;;4.40;;
71965;SDS011;59836;52.132;5.442;2023-05-23T02:01:16;8.57;;;5.05;;
71965;SDS011;59836;52.132;5.442;2023-05-23T02:03:43;8.57;;;4.27;;
71965;SDS011;59836;52.132;5.442;2023-05-23T02:06:09;8.63;;;4.80;;
71965;SDS011;59836;52.132;5.442;2023-05-23T02:08:36;8.20;;;4.63;;
71965;SDS011;59836;52.132;5.442;2023-05-23T02:11:03;9.73;;;4.63;;
71965;SDS011;59836;52.132;5.442;2023-05-23T02:13:29;9.82;;;4.55;;
71965;SDS011;59836;52.132;5.442;2023-05-23T02:15:56;9.53;;;4.27;;
71965;SDS011;59836;52.132;5.442;2023-05-23T02:18:23;12.90;;;5.25;;
71965;SDS011;59836;52.132;5.442;2023-05-23T02:20:51;9.43;;;4.57;;
71965;SDS011;59836;52.132;5.442;2023-05-23T02:23:18;8.30;;;4.55;;
71965;SDS011;59836;52.132;5.442;2023-05-23T02:25:44;7.65;;;4.38;;
71965;SDS011;59836;52.132;5.442;2023-05-23T02:28:11;11.37;;;4.37;;
71965;SDS011;59836;52.132;5.442;2023-05-23T02:30:38;7.43;;;4.20;;
71965;SDS011;59836;52.132;5.442;2023-05-23T02:33:07;9.90;;;4.60;;
71965;SDS011;59836;52.132;5.442;2023-05-23T02:35:34;10.48;;;4.40;;
71965;SDS011;59836;52.132;5.442;2023-05-23T02:38:00;9.20;;;4.25;;
71965;SDS011;59836;52.132;5.442;2023-05-23T02:40:27;11.00;;;4.87;;
71965;SDS011;59836;52.132;5.442;2023-05-23T02:42:53;13.52;;;4.78;;
71965;SDS011;59836;52.132;5.442;2023-05-23T02:45:22;12.32;;;4.57;;
71965;SDS011;59836;52.132;5.442;2023-05-23T02:47:49;8.00;;;4.60;;
71965;SDS011;59836;52.132;5.442;2023-05-23T02:50:15;14.07;;;4.85;;
71965;SDS011;59836;52.132;5.442;2023-05-23T02:52:42;7.73;;;4.30;;
71965;SDS011;59836;52.132;5.442;2023-05-23T02:55:09;9.10;;;3.80;;
71965;SDS011;59836;52.132;5.442;2023-05-23T02:57:35;12.27;;;4.90;;
71965;SDS011;59836;52.132;5.442;2023-05-23T03:00:02;9.02;;;4.85;;
71965;SDS011;59836;52.132;5.442;2023-05-23T03:02:29;11.13;;;4.35;;
71965;SDS011;59836;52.132;5.442;2023-05-23T03:04:56;13.07;;;5.00;;
71965;SDS011;59836;52.132;5.442;2023-05-23T03:07:23;8.48;;;4.13;;
71965;SDS011;59836;52.132;5.442;2023-05-23T03:09:54;9.48;;;4.22;;
71965;SDS011;59836;52.132;5.442;2023-05-23T03:12:21;9.30;;;4.75;;
71965;SDS011;59836;52.132;5.442;2023-05-23T03:14:47;10.07;;;4.20;;
71965;SDS011;59836;52.132;5.442;2023-05-23T03:17:14;14.87;;;4.10;;
71965;SDS011;59836;52.132;5.442;2023-05-23T03:19:41;9.82;;;4.30;;
71965;SDS011;59836;52.132;5.442;2023-05-23T03:22:07;11.05;;;4.60;;
71965;SDS011;59836;52.132;5.442;2023-05-23T03:24:34;9.93;;;4.32;;
71965;SDS011;59836;52.132;5.442;2023-05-23T03:27:00;14.13;;;5.43;;
71965;SDS011;59836;52.132;5.442;2023-05-23T03:29:27;13.07;;;4.77;;
71965;SDS011;59836;52.132;5.442;2023-05-23T03:31:54;12.55;;;5.38;;
71965;SDS011;59836;52.132;5.442;2023-05-23T03:34:20;13.20;;;4.95;;
71965;SDS011;59836;52.132;5.442;2023-05-23T03:36:49;12.60;;;4.90;;
71965;SDS011;59836;52.132;5.442;2023-05-23T03:39:16;15.35;;;5.82;;
71965;SDS011;59836;52.132;5.442;2023-05-23T03:41:42;13.43;;;4.53;;
71965;SDS011;59836;52.132;5.442;2023-05-23T03:44:09;15.15;;;4.95;;
71965;SDS011;59836;52.132;5.442;2023-05-23T03:46:36;15.45;;;5.47;;
71965;SDS011;59836;52.132;5.442;2023-05-23T03:49:04;18.13;;;5.82;;
71965;SDS011;59836;52.132;5.442;2023-05-23T03:51:31;15.10;;;5.35;;
71965;SDS011;59836;52.132;5.442;2023-05-23T03:53:57;13.77;;;5.87;;
71965;SDS011;59836;52.132;5.442;2023-05-23T03:56:24;13.63;;;5.50;;
71965;SDS011;59836;52.132;5.442;2023-05-23T03:58:51;14.48;;;5.30;;
71965;SDS011;59836;52.132;5.442;2023-05-23T04:01:18;12.25;;;5.53;;
71965;SDS011;59836;52.132;5.442;2023-05-23T04:03:44;14.77;;;4.80;;
71965;SDS011;59836;52.132;5.442;2023-05-23T04:06:11;16.10;;;5.13;;
71965;SDS011;59836;52.132;5.442;2023-05-23T04:08:39;16.88;;;4.90;;
71965;SDS011;59836;52.132;5.442;2023-05-23T04:11:07;13.95;;;5.10;;
71965;SDS011;59836;52.132;5.442;2023-05-23T04:13:33;18.02;;;4.90;;
71965;SDS011;59836;52.132;5.442;2023-05-23T04:16:00;13.43;;;4.90;;
71965;SDS011;59836;52.132;5.442;2023-05-23T04:18:31;13.20;;;4.60;;
71965;SDS011;59836;52.132;5.442;2023-05-23T04:21:04;16.63;;;5.38;;
71965;SDS011;59836;52.132;5.442;2023-05-23T04:23:31;11.07;;;4.70;;
71965;SDS011;59836;52.132;5.442;2023-05-23T04:25:57;10.25;;;3.80;;
71965;SDS011;59836;52.132;5.442;2023-05-23T04:28:27;14.52;;;3.75;;
71965;SDS011;59836;52.132;5.442;2023-05-23T04:30:54;10.90;;;3.80;;
71965;SDS011;59836;52.132;5.442;2023-05-23T04:33:21;12.70;;;4.00;;
71965;SDS011;59836;52.132;5.442;2023-05-23T04:35:48;11.55;;;3.95;;
71965;SDS011;59836;52.132;5.442;2023-05-23T04:38:14;9.63;;;3.38;;
71965;SDS011;59836;52.132;5.442;2023-05-23T04:40:41;13.82;;;3.88;;
71965;SDS011;59836;52.132;5.442;2023-05-23T04:43:07;10.47;;;3.20;;
71965;SDS011;59836;52.132;5.442;2023-05-23T04:45:35;9.68;;;3.72;;
71965;SDS011;59836;52.132;5.442;2023-05-23T04:48:02;10.35;;;3.58;;
71965;SDS011;59836;52.132;5.442;2023-05-23T04:50:29;11.10;;;3.42;;
71965;SDS011;59836;52.132;5.442;2023-05-23T04:52:58;5.47;;;2.53;;
71965;SDS011;59836;52.132;5.442;2023-05-23T04:55:25;6.23;;;2.70;;
71965;SDS011;59836;52.132;5.442;2023-05-23T04:57:51;7.60;;;2.70;;
71965;SDS011;59836;52.132;5.442;2023-05-23T05:00:18;8.05;;;2.90;;
71965;SDS011;59836;52.132;5.442;2023-05-23T05:02:45;7.88;;;2.38;;
71965;SDS011;59836;52.132;5.442;2023-05-23T05:05:12;8.70;;;3.00;;
71965;SDS011;59836;52.132;5.442;2023-05-23T05:07:38;7.70;;;2.70;;
71965;SDS011;59836;52.132;5.442;2023-05-23T05:10:05;9.27;;;3.47;;
71965;SDS011;59836;52.132;5.442;2023-05-23T05:12:32;10.60;;;3.85;;
71965;SDS011;59836;52.132;5.442;2023-05-23T05:14:59;15.52;;;3.90;;
71965;SDS011;59836;52.132;5.442;2023-05-23T05:17:26;10.45;;;3.30;;
71965;SDS011;59836;52.132;5.442;2023-05-23T05:19:53;9.10;;;3.23;;
71965;SDS011;59836;52.132;5.442;2023-05-23T05:22:19;10.82;;;3.33;;
71965;SDS011;59836;52.132;5.442;2023-05-23T05:24:46;5.18;;;2.55;;
71965;SDS011;59836;52.132;5.442;2023-05-23T05:27:12;7.55;;;3.05;;
71965;SDS011;59836;52.132;5.442;2023-05-23T05:29:39;9.85;;;2.92;;
71965;SDS011;59836;52.132;5.442;2023-05-23T05:32:05;7.10;;;2.70;;
71965;SDS011;59836;52.132;5.442;2023-05-23T05:34:34;10.23;;;3.72;;
71965;SDS011;59836;52.132;5.442;2023-05-23T05:37:00;7.72;;;3.70;;
71965;SDS011;59836;52.132;5.442;2023-05-23T05:39:27;5.80;;;3.13;;
71965;SDS011;59836;52.132;5.442;2023-05-23T05:41:53;9.38;;;2.70;;
71965;SDS011;59836;52.132;5.442;2023-05-23T05:44:21;6.73;;;2.93;;
71965;SDS011;59836;52.132;5.442;2023-05-23T05:46:47;9.05;;;2.90;;
71965;SDS011;59836;52.132;5.442;2023-05-23T05:49:14;9.82;;;3.10;;
71965;SDS011;59836;52.132;5.442;2023-05-23T05:51:40;8.00;;;3.13;;
71965;SDS011;59836;52.132;5.442;2023-05-23T05:54:07;9.77;;;2.95;;
71965;SDS011;59836;52.132;5.442;2023-05-23T05:56:33;11.20;;;3.10;;
71965;SDS011;59836;52.132;5.442;2023-05-23T05:59:00;8.82;;;3.20;;
71965;SDS011;59836;52.132;5.442;2023-05-23T06:01:27;8.25;;;3.13;;
71965;SDS011;59836;52.132;5.442;2023-05-23T06:03:53;8.60;;;2.85;;
71965;SDS011;59836;52.132;5.442;2023-05-23T06:06:20;13.10;;;3.67;;
71965;SDS011;59836;52.132;5.442;2023-05-23T06:08:47;11.33;;;3.47;;
71965;SDS011;59836;52.132;5.442;2023-05-23T06:11:13;12.15;;;4.13;;
71965;SDS011;59836;52.132;5.442;2023-05-23T06:13:40;8.27;;;3.40;;
71965;SDS011;59836;52.132;5.442;2023-05-23T06:16:06;10.40;;;3.75;;
71965;SDS011;59836;52.132;5.442;2023-05-23T06:18:33;10.05;;;3.60;;
71965;SDS011;59836;52.132;5.442;2023-05-23T06:20:59;9.93;;;3.40;;
71965;SDS011;59836;52.132;5.442;2023-05-23T06:23:26;10.98;;;4.07;;
71965;SDS011;59836;52.132;5.442;2023-05-23T06:25:52;11.27;;;3.20;;
71965;SDS011;59836;52.132;5.442;2023-05-23T06:28:19;10.93;;;3.60;;
71965;SDS011;59836;52.132;5.442;2023-05-23T06:30:45;9.82;;;3.40;;
71965;SDS011;59836;52.132;5.442;2023-05-23T06:33:12;10.77;;;3.40;;
71965;SDS011;59836;52.132;5.442;2023-05-23T06:35:38;10.85;;;3.80;;
71965;SDS011;59836;52.132;5.442;2023-05-23T06:38:05;11.90;;;3.70;;
71965;SDS011;59836;52.132;5.442;2023-05-23T06:40:31;9.20;;;3.60;;
71965;SDS011;59836;52.132;5.442;2023-05-23T06:42:58;7.68;;;3.55;;
71965;SDS011;59836;52.132;5.442;2023-05-23T06:45:24;8.40;;;3.27;;
71965;SDS011;59836;52.132;5.442;2023-05-23T06:47:51;7.82;;;3.25;;
71965;SDS011;59836;52.132;5.442;2023-05-23T06:50:17;10.05;;;2.95;;
71965;SDS011;59836;52.132;5.442;2023-05-23T06:52:45;7.95;;;3.33;;
71965;SDS011;59836;52.132;5.442;2023-05-23T06:55:15;9.05;;;3.50;;
71965;SDS011;59836;52.132;5.442;2023-05-23T06:57:44;8.23;;;3.57;;
71965;SDS011;59836;52.132;5.442;2023-05-23T07:00:12;9.88;;;3.80;;
71965;SDS011;59836;52.132;5.442;2023-05-23T07:02:39;9.77;;;2.88;;
71965;SDS011;59836;52.132;5.442;2023-05-23T07:05:05;8.13;;;2.85;;
71965;SDS011;59836;52.132;5.442;2023-05-23T07:07:32;6.45;;;2.78;;
71965;SDS011;59836;52.132;5.442;2023-05-23T07:09:59;8.00;;;2.83;;
71965;SDS011;59836;52.132;5.442;2023-05-23T07:12:25;7.28;;;1.90;;
71965;SDS011;59836;52.132;5.442;2023-05-23T07:14:52;4.45;;;2.25;;
71965;SDS011;59836;52.132;5.442;2023-05-23T07:17:18;6.88;;;2.13;;
71965;SDS011;59836;52.132;5.442;2023-05-23T07:19:45;8.02;;;2.55;;
71965;SDS011;59836;52.132;5.442;2023-05-23T07:22:11;6.83;;;1.50;;
71965;SDS011;59836;52.132;5.442;2023-05-23T07:24:38;11.15;;;2.25;;
71965;SDS011;59836;52.132;5.442;2023-05-23T07:27:04;7.35;;;1.60;;
71965;SDS011;59836;52.132;5.442;2023-05-23T07:29:31;11.23;;;1.83;;
71965;SDS011;59836;52.132;5.442;2023-05-23T07:31:58;7.68;;;1.75;;
71965;SDS011;59836;52.132;5.442;2023-05-23T07:34:25;10.90;;;2.40;;
71965;SDS011;59836;52.132;5.442;2023-05-23T07:36:52;13.25;;;2.20;;
71965;SDS011;59836;52.132;5.442;2023-05-23T07:39:18;8.82;;;1.80;;
71965;SDS011;59836;52.132;5.442;2023-05-23T07:41:49;8.43;;;2.10;;
71965;SDS011;59836;52.132;5.442;2023-05-23T07:44:17;6.95;;;1.60;;
71965;SDS011;59836;52.132;5.442;2023-05-23T07:46:45;8.77;;;1.40;;
71965;SDS011;59836;52.132;5.442;2023-05-23T07:49:12;12.60;;;2.15;;
71965;SDS011;59836;52.132;5.442;2023-05-23T07:51:38;8.10;;;1.52;;
71965;SDS011;59836;52.132;5.442;2023-05-23T07:54:05;10.32;;;1.90;;
71965;SDS011;59836;52.132;5.442;2023-05-23T07:56:32;5.10;;;1.60;;
71965;SDS011;59836;52.132;5.442;2023-05-23T07:58:58;7.73;;;1.63;;
71965;SDS011;59836;52.132;5.442;2023-05-23T08:01:25;8.93;;;2.05;;
71965;SDS011;59836;52.132;5.442;2023-05-23T08:03:51;6.97;;;1.33;;
71965;SDS011;59836;52.132;5.442;2023-05-23T08:06:18;5.47;;;1.38;;
71965;SDS011;59836;52.132;5.442;2023-05-23T08:08:44;11.73;;;1.50;;
71965;SDS011;59836;52.132;5.442;2023-05-23T08:11:11;7.07;;;1.67;;
71965;SDS011;59836;52.132;5.442;2023-05-23T08:13:37;7.28;;;1.75;;
71965;SDS011;59836;52.132;5.442;2023-05-23T08:16:04;9.20;;;1.80;;
71965;SDS011;59836;52.132;5.442;2023-05-23T08:18:30;6.60;;;1.58;;
71965;SDS011;59836;52.132;5.442;2023-05-23T08:20:57;9.07;;;2.33;;
71965;SDS011;59836;52.132;5.442;2023-05-23T08:23:24;10.30;;;2.10;;
71965;SDS011;59836;52.132;5.442;2023-05-23T08:25:51;8.50;;;1.65;;
71965;SDS011;59836;52.132;5.442;2023-05-23T08:28:18;8.88;;;1.73;;
71965;SDS011;59836;52.132;5.442;2023-05-23T08:30:44;8.77;;;2.22;;
71965;SDS011;59836;52.132;5.442;2023-05-23T08:33:11;8.13;;;2.05;;
71965;SDS011;59836;52.132;5.442;2023-05-23T08:35:38;10.23;;;1.87;;
71965;SDS011;59836;52.132;5.442;2023-05-23T08:38:04;7.70;;;1.73;;
71965;SDS011;59836;52.132;5.442;2023-05-23T08:40:33;9.25;;;2.33;;
71965;SDS011;59836;52.132;5.442;2023-05-23T08:43:00;5.63;;;1.65;;
71965;SDS011;59836;52.132;5.442;2023-05-23T08:45:27;8.07;;;1.85;;
71965;SDS011;59836;52.132;5.442;2023-05-23T08:47:56;10.70;;;1.83;;
71965;SDS011;59836;52.132;5.442;2023-05-23T08:50:26;10.30;;;1.67;;
71965;SDS011;59836;52.132;5.442;2023-05-23T08:52:58;9.50;;;1.73;;
71965;SDS011;59836;52.132;5.442;2023-05-23T08:55:28;9.57;;;1.83;;
71965;SDS011;59836;52.132;5.442;2023-05-23T08:57:58;11.00;;;1.55;;
71965;SDS011;59836;52.132;5.442;2023-05-23T09:00:26;5.90;;;1.80;;
71965;SDS011;59836;52.132;5.442;2023-05-23T09:02:53;10.52;;;1.80;;
71965;SDS011;59836;52.132;5.442;2023-05-23T09:05:20;7.75;;;2.03;;
71965;SDS011;59836;52.132;5.442;2023-05-23T09:07:48;7.68;;;1.73;;
71965;SDS011;59836;52.132;5.442;2023-05-23T09:10:16;8.77;;;1.80;;
71965;SDS011;59836;52.132;5.442;2023-05-23T09:12:47;9.43;;;1.97;;
71965;SDS011;59836;52.132;5.442;2023-05-23T09:15:14;6.93;;;1.90;;
71965;SDS011;59836;52.132;5.442;2023-05-23T09:17:42;11.23;;;1.83;;
71965;SDS011;59836;52.132;5.442;2023-05-23T09:20:10;8.07;;;2.50;;
71965;SDS011;59836;52.132;5.442;2023-05-23T09:22:39;9.57;;;1.85;;
71965;SDS011;59836;52.132;5.442;2023-05-23T09:25:07;8.27;;;1.53;;
71965;SDS011;59836;52.132;5.442;2023-05-23T09:27:34;7.25;;;1.80;;
71965;SDS011;59836;52.132;5.442;2023-05-23T09:30:04;4.97;;;1.67;;
71965;SDS011;59836;52.132;5.442;2023-05-23T09:32:31;5.57;;;2.00;;
71965;SDS011;59836;52.132;5.442;2023-05-23T09:34:59;7.93;;;1.92;;
71965;SDS011;59836;52.132;5.442;2023-05-23T09:39:59;10.40;;;1.95;;
71965;SDS011;59836;52.132;5.442;2023-05-23T09:42:30;6.72;;;2.35;;
71965;SDS011;59836;52.132;5.442;2023-05-23T09:44:59;8.75;;;1.33;;
71965;SDS011;59836;52.132;5.442;2023-05-23T09:47:29;7.13;;;1.52;;
71965;SDS011;59836;52.132;5.442;2023-05-23T09:49:56;9.53;;;1.53;;
71965;SDS011;59836;52.132;5.442;2023-05-23T09:52:22;9.50;;;2.40;;
71965;SDS011;59836;52.132;5.442;2023-05-23T09:54:49;5.45;;;1.85;;
71965;SDS011;59836;52.132;5.442;2023-05-23T09:57:16;7.20;;;1.80;;
71965;SDS011;59836;52.132;5.442;2023-05-23T09:59:48;10.73;;;1.63;;
71965;SDS011;59836;52.132;5.442;2023-05-23T10:02:23;9.07;;;1.87;;
71965;SDS011;59836;52.132;5.442;2023-05-23T10:05:12;7.68;;;2.10;;
71965;SDS011;59836;52.132;5.442;2023-05-23T10:07:48;9.18;;;1.55;;
71965;SDS011;59836;52.132;5.442;2023-05-23T10:10:15;6.90;;;1.42;;
71965;SDS011;59836;52.132;5.442;2023-05-23T10:12:48;7.15;;;1.75;;
71965;SDS011;59836;52.132;5.442;2023-05-23T10:15:17;10.33;;;1.50;;
71965;SDS011;59836;52.132;5.442;2023-05-23T10:20:31;7.68;;;1.60;;
71965;SDS011;59836;52.132;5.442;2023-05-23T10:22:58;7.13;;;1.55;;
71965;SDS011;59836;52.132;5.442;2023-05-23T10:25:27;10.60;;;1.73;;
71965;SDS011;59836;52.132;5.442;2023-05-23T10:27:54;7.10;;;1.50;;
71965;SDS011;59836;52.132;5.442;2023-05-23T10:30:29;9.30;;;2.20;;
71965;SDS011;59836;52.132;5.442;2023-05-23T10:32:55;7.68;;;1.30;;
71965;SDS011;59836;52.132;5.442;2023-05-23T10:35:31;10.00;;;2.00;;
71965;SDS011;59836;52.132;5.442;2023-05-23T10:38:27;8.02;;;1.60;;
71965;SDS011;59836;52.132;5.442;2023-05-23T10:43:46;8.43;;;2.00;;
71965;SDS011;59836;52.132;5.442;2023-05-23T10:46:18;8.75;;;2.13;;
71965;SDS011;59836;52.132;5.442;2023-05-23T10:48:47;7.65;;;2.22;;
71965;SDS011;59836;52.132;5.442;2023-05-23T10:51:18;7.40;;;1.67;;
71965;SDS011;59836;52.132;5.442;2023-05-23T10:53:52;9.77;;;1.33;;
71965;SDS011;59836;52.132;5.442;2023-05-23T10:56:20;7.38;;;1.70;;
71965;SDS011;59836;52.132;5.442;2023-05-23T10:58:53;9.57;;;1.30;;
71965;SDS011;59836;52.132;5.442;2023-05-23T11:01:20;6.32;;;1.90;;
71965;SDS011;59836;52.132;5.442;2023-05-23T11:09:04;9.75;;;1.77;;
71965;SDS011;59836;52.132;5.442;2023-05-23T11:16:58;8.48;;;2.00;;
71965;SDS011;59836;52.132;5.442;2023-05-23T11:19:26;7.63;;;1.43;;
71965;SDS011;59836;52.132;5.442;2023-05-23T11:27:28;5.40;;;1.88;;
71965;SDS011;59836;52.132;5.442;2023-05-23T11:30:06;5.65;;;1.63;;
71965;SDS011;59836;52.132;5.442;2023-05-23T11:32:34;6.53;;;1.67;;
71965;SDS011;59836;52.132;5.442;2023-05-23T11:35:02;9.55;;;2.00;;
71965;SDS011;59836;52.132;5.442;2023-05-23T11:37:31;13.43;;;2.20;;
71965;SDS011;59836;52.132;5.442;2023-05-23T11:39:58;6.70;;;1.60;;
71965;SDS011;59836;52.132;5.442;2023-05-23T11:42:24;5.18;;;1.70;;
71965;SDS011;59836;52.132;5.442;2023-05-23T11:44:51;6.33;;;1.13;;
71965;SDS011;59836;52.132;5.442;2023-05-23T11:47:18;7.30;;;2.35;;
71965;SDS011;59836;52.132;5.442;2023-05-23T11:49:45;14.02;;;1.40;;
71965;SDS011;59836;52.132;5.442;2023-05-23T11:52:12;8.13;;;1.77;;
71965;SDS011;59836;52.132;5.442;2023-05-23T11:54:40;11.43;;;1.92;;
71965;SDS011;59836;52.132;5.442;2023-05-23T11:57:10;8.53;;;1.67;;
71965;SDS011;59836;52.132;5.442;2023-05-23T11:59:39;8.07;;;2.35;;
71965;SDS011;59836;52.132;5.442;2023-05-23T12:02:05;7.70;;;1.70;;
71965;SDS011;59836;52.132;5.442;2023-05-23T12:04:33;7.57;;;1.40;;
71965;SDS011;59836;52.132;5.442;2023-05-23T12:07:03;6.60;;;1.23;;
71965;SDS011;59836;52.132;5.442;2023-05-23T12:09:31;6.17;;;1.23;;
71965;SDS011;59836;52.132;5.442;2023-05-23T12:11:58;6.45;;;1.40;;
71965;SDS011;59836;52.132;5.442;2023-05-23T12:14:27;8.98;;;1.30;;
71965;SDS011;59836;52.132;5.442;2023-05-23T12:16:54;4.20;;;1.52;;
71965;SDS011;59836;52.132;5.442;2023-05-23T12:19:20;5.30;;;1.20;;
71965;SDS011;59836;52.132;5.442;2023-05-23T12:21:47;5.70;;;1.40;;
71965;SDS011;59836;52.132;5.442;2023-05-23T12:24:15;6.05;;;1.40;;
71965;SDS011;59836;52.132;5.442;2023-05-23T12:26:52;6.78;;;1.67;;
71965;SDS011;59836;52.132;5.442;2023-05-23T12:29:21;4.28;;;1.35;;
71965;SDS011;59836;52.132;5.442;2023-05-23T12:31:53;6.50;;;1.40;;
71965;SDS011;59836;52.132;5.442;2023-05-23T12:34:20;6.13;;;2.03;;
71965;SDS011;59836;52.132;5.442;2023-05-23T12:36:47;6.35;;;1.63;;
71965;SDS011;59836;52.132;5.442;2023-05-23T12:39:23;7.40;;;1.52;;
71965;SDS011;59836;52.132;5.442;2023-05-23T12:42:05;6.65;;;1.67;;
71965;SDS011;59836;52.132;5.442;2023-05-23T12:44:36;5.47;;;1.35;;
71965;SDS011;59836;52.132;5.442;2023-05-23T12:47:03;8.53;;;1.80;;
71965;SDS011;59836;52.132;5.442;2023-05-23T12:49:29;7.88;;;1.73;;
71965;SDS011;59836;52.132;5.442;2023-05-23T12:51:56;6.55;;;1.77;;
71965;SDS011;59836;52.132;5.442;2023-05-23T12:54:23;6.18;;;1.80;;
71965;SDS011;59836;52.132;5.442;2023-05-23T12:56:49;7.75;;;1.25;;
71965;SDS011;59836;52.132;5.442;2023-05-23T12:59:15;5.33;;;1.50;;
71965;SDS011;59836;52.132;5.442;2023-05-23T13:01:42;6.13;;;1.60;;
71965;SDS011;59836;52.132;5.442;2023-05-23T13:04:09;7.22;;;1.27;;
71965;SDS011;59836;52.132;5.442;2023-05-23T13:06:35;10.52;;;1.30;;
71965;SDS011;59836;52.132;5.442;2023-05-23T13:09:02;10.20;;;1.75;;
71965;SDS011;59836;52.132;5.442;2023-05-23T13:11:29;7.23;;;1.70;;
71965;SDS011;59836;52.132;5.442;2023-05-23T13:13:56;7.25;;;1.30;;
71965;SDS011;59836;52.132;5.442;2023-05-23T13:16:23;8.23;;;1.45;;
71965;SDS011;59836;52.132;5.442;2023-05-23T13:18:50;7.60;;;1.48;;
71965;SDS011;59836;52.132;5.442;2023-05-23T13:21:17;6.00;;;1.35;;
71965;SDS011;59836;52.132;5.442;2023-05-23T13:23:44;8.30;;;1.20;;
71965;SDS011;59836;52.132;5.442;2023-05-23T13:26:11;7.60;;;1.50;;
71965;SDS011;59836;52.132;5.442;2023-05-23T13:28:39;5.82;;;1.55;;
71965;SDS011;59836;52.132;5.442;2023-05-23T13:31:06;5.00;;;1.83;;
71965;SDS011;59836;52.132;5.442;2023-05-23T13:33:32;11.73;;;2.25;;
71965;SDS011;59836;52.132;5.442;2023-05-23T13:35:59;10.67;;;1.67;;
71965;SDS011;59836;52.132;5.442;2023-05-23T13:38:25;11.73;;;1.90;;
71965;SDS011;59836;52.132;5.442;2023-05-23T13:40:53;5.30;;;1.25;;
71965;SDS011;59836;52.132;5.442;2023-05-23T13:43:19;7.10;;;1.90;;
71965;SDS011;59836;52.132;5.442;2023-05-23T13:45:47;8.48;;;1.77;;
71965;SDS011;59836;52.132;5.442;2023-05-23T13:48:13;6.37;;;1.27;;
71965;SDS011;59836;52.132;5.442;2023-05-23T13:50:40;7.63;;;1.17;;
71965;SDS011;59836;52.132;5.442;2023-05-23T13:53:08;3.97;;;1.48;;
71965;SDS011;59836;52.132;5.442;2023-05-23T13:55:40;7.25;;;1.55;;
71965;SDS011;59836;52.132;5.442;2023-05-23T13:58:06;4.97;;;1.38;;
71965;SDS011;59836;52.132;5.442;2023-05-23T14:00:33;6.80;;;1.30;;
71965;SDS011;59836;52.132;5.442;2023-05-23T14:02:59;4.65;;;1.55;;
71965;SDS011;59836;52.132;5.442;2023-05-23T14:05:26;5.15;;;1.40;;
71965;SDS011;59836;52.132;5.442;2023-05-23T14:07:52;4.43;;;2.03;;
71965;SDS011;59836;52.132;5.442;2023-05-23T14:10:19;3.17;;;1.40;;
71965;SDS011;59836;52.132;5.442;2023-05-23T14:12:46;4.37;;;1.60;;
71965;SDS011;59836;52.132;5.442;2023-05-23T14:15:13;4.82;;;1.13;;
71965;SDS011;59836;52.132;5.442;2023-05-23T14:17:40;7.43;;;1.40;;
71965;SDS011;59836;52.132;5.442;2023-05-23T14:20:06;5.07;;;1.50;;
71965;SDS011;59836;52.132;5.442;2023-05-23T14:22:33;5.15;;;1.30;;
71965;SDS011;59836;52.132;5.442;2023-05-23T14:25:00;4.20;;;1.40;;
71965;SDS011;59836;52.132;5.442;2023-05-23T14:27:26;5.32;;;1.60;;
71965;SDS011;59836;52.132;5.442;2023-05-23T14:29:53;4.80;;;1.60;;
71965;SDS011;59836;52.132;5.442;2023-05-23T14:32:19;5.05;;;1.02;;
71965;SDS011;59836;52.132;5.442;2023-05-23T14:34:46;8.57;;;1.67;;
71965;SDS011;59836;52.132;5.442;2023-05-23T14:37:13;4.50;;;1.13;;
71965;SDS011;59836;52.132;5.442;2023-05-23T14:39:39;9.02;;;1.60;;
71965;SDS011;59836;52.132;5.442;2023-05-23T14:42:06;7.07;;;1.42;;
71965;SDS011;59836;52.132;5.442;2023-05-23T14:44:33;7.15;;;1.95;;
71965;SDS011;59836;52.132;5.442;2023-05-23T14:46:59;5.95;;;1.25;;
71965;SDS011;59836;52.132;5.442;2023-05-23T14:49:26;8.33;;;1.70;;
71965;SDS011;59836;52.132;5.442;2023-05-23T14:51:52;6.30;;;1.23;;
71965;SDS011;59836;52.132;5.442;2023-05-23T14:54:19;7.85;;;1.42;;
71965;SDS011;59836;52.132;5.442;2023-05-23T14:56:45;7.07;;;1.17;;
71965;SDS011;59836;52.132;5.442;2023-05-23T14:59:12;6.32;;;1.40;;
71965;SDS011;59836;52.132;5.442;2023-05-23T15:01:38;5.67;;;1.40;;
71965;SDS011;59836;52.132;5.442;2023-05-23T15:04:06;7.68;;;1.40;;
71965;SDS011;59836;52.132;5.442;2023-05-23T15:06:35;3.83;;;1.25;;
71965;SDS011;59836;52.132;5.442;2023-05-23T15:09:03;3.95;;;1.20;;
71965;SDS011;59836;52.132;5.442;2023-05-23T15:11:30;3.85;;;1.17;;
71965;SDS011;59836;52.132;5.442;2023-05-23T15:13:57;7.20;;;1.00;;
71965;SDS011;59836;52.132;5.442;2023-05-23T15:16:24;4.65;;;1.40;;